createdAt,value
2023-03-12T00:00:17.081Z,1012.037506
2023-03-12T00:05:17.020Z,1012.099409
2023-03-12T00:10:16.737Z,1012.098436
2023-03-12T00:15:16.943Z,1012.037141
2023-03-12T00:20:16.450Z,1012.082161
2023-03-12T00:25:16.437Z,1012.147082
2023-03-12T00:30:16.682Z,1012.189724
2023-03-12T00:35:16.428Z,1012.157911
2023-03-12T00:40:18.993Z,1012.146051
2023-03-12T00:45:19.400Z,1012.196932
2023-03-12T00:50:18.940Z,1012.187635
2023-03-12T00:55:19.186Z,1012.211636
2023-03-12T01:05:19.064Z,1012.197977
2023-03-12T01:10:19.498Z,1012.187794
2023-03-12T01:15:19.283Z,1012.199583
2023-03-12T01:20:19.173Z,1012.229716
2023-03-12T01:25:19.256Z,1012.223019
2023-03-12T01:30:19.104Z,1012.287529
2023-03-12T01:35:19.265Z,1012.267068
2023-03-12T01:40:19.063Z,1012.259956
2023-03-12T01:45:18.986Z,1012.304598
2023-03-12T01:50:18.967Z,1012.228136
2023-03-12T01:55:19.207Z,1012.202696
2023-03-12T02:00:19.187Z,1012.163583
2023-03-12T02:05:19.124Z,1012.174749
2023-03-12T02:10:18.970Z,1012.185724
2023-03-12T02:15:18.934Z,1012.167775
2023-03-12T02:20:18.930Z,1012.174701
2023-03-12T02:25:19.410Z,1012.204276
2023-03-12T02:30:19.005Z,1012.288964
2023-03-12T02:35:18.888Z,1012.316776
2023-03-12T02:40:18.957Z,1012.269573
2023-03-12T02:45:19.071Z,1012.254364
2023-03-12T02:50:19.081Z,1012.320729
2023-03-12T02:55:19.024Z,1012.378676
2023-03-12T03:00:19.222Z,1012.379839
2023-03-12T03:05:19.412Z,1012.383050
2023-03-12T03:10:19.359Z,1012.398453
2023-03-12T03:15:18.936Z,1012.483054
2023-03-12T03:20:19.247Z,1012.537516
2023-03-12T03:25:19.062Z,1012.526816
2023-03-12T03:30:18.968Z,1012.575827
2023-03-12T03:35:18.886Z,1012.637821
2023-03-12T03:40:19.007Z,1012.642332
2023-03-12T03:45:18.893Z,1012.699208
2023-03-12T03:50:18.796Z,1012.715626
2023-03-12T03:55:18.904Z,1012.735486
2023-03-12T04:00:18.974Z,1012.740468
2023-03-12T04:05:19.058Z,1012.770097
2023-03-12T04:10:19.036Z,1012.787423
2023-03-12T04:15:18.856Z,1012.833716
2023-03-12T04:20:16.403Z,1012.756762
2023-03-12T04:25:16.586Z,1012.703552
2023-03-12T04:30:16.445Z,1012.695005
2023-03-12T04:35:16.321Z,1012.758121
2023-03-12T04:40:16.863Z,1012.839314
2023-03-12T04:45:16.402Z,1012.903156
2023-03-12T04:50:16.487Z,1012.978691
2023-03-12T04:55:16.331Z,1013.015088
2023-03-12T05:00:16.589Z,1013.006361
2023-03-12T05:05:16.498Z,1012.914359
2023-03-12T05:10:16.666Z,1012.922718
2023-03-12T05:15:16.331Z,1012.929274
2023-03-12T05:20:16.452Z,1012.912274
2023-03-12T05:25:16.536Z,1012.896530
2023-03-12T05:30:16.617Z,1012.931063
2023-03-12T05:35:16.422Z,1012.978411
2023-03-12T05:40:16.644Z,1012.953150
2023-03-12T05:45:16.851Z,1012.974273
2023-03-12T05:50:16.340Z,1013.027736
2023-03-12T05:55:16.416Z,1013.050168
2023-03-12T06:00:16.488Z,1013.134983
2023-03-12T06:05:17.006Z,1013.173548
2023-03-12T06:10:16.691Z,1013.131879
2023-03-12T06:15:16.287Z,1013.095791
2023-03-12T06:20:16.497Z,1013.092946
2023-03-12T06:25:16.420Z,1013.150529
2023-03-12T06:30:16.363Z,1013.193590
2023-03-12T06:35:16.234Z,1013.247979
2023-03-12T06:40:16.511Z,1013.239358
2023-03-12T06:45:16.286Z,1013.250550
2023-03-12T06:50:16.613Z,1013.265173
2023-03-12T06:55:16.291Z,1013.215244
2023-03-12T07:00:16.395Z,1013.132922
2023-03-12T07:05:16.541Z,1013.089505
2023-03-12T07:10:16.420Z,1013.104767
2023-03-12T07:15:16.525Z,1013.115833
2023-03-12T07:20:16.328Z,1013.082474
2023-03-12T07:25:19.161Z,1013.018453
2023-03-12T07:30:18.746Z,1012.952138
2023-03-12T07:35:18.912Z,1012.958392
2023-03-12T07:40:19.527Z,1012.804143
2023-03-12T07:45:19.754Z,1012.808140
2023-03-12T07:50:19.438Z,1012.795893
2023-03-12T07:55:18.950Z,1012.796223
2023-03-12T08:00:18.813Z,1012.669674
2023-03-12T08:05:19.124Z,1012.657371
2023-03-12T08:10:19.060Z,1012.632918
2023-03-12T08:15:18.800Z,1012.587892
2023-03-12T08:20:18.817Z,1012.590059
2023-03-12T08:25:18.660Z,1012.565842
2023-03-12T08:30:18.896Z,1012.608356
2023-03-12T08:35:18.818Z,1012.613977
2023-03-12T08:40:18.905Z,1012.585693
2023-03-12T08:45:18.785Z,1012.479361
2023-03-12T08:50:18.908Z,1012.507271
2023-03-12T08:55:19.196Z,1012.507389
2023-03-12T09:00:18.830Z,1012.501722
2023-03-12T09:05:18.868Z,1012.423670
2023-03-12T09:10:19.384Z,1012.333235
2023-03-12T09:15:18.776Z,1012.304593
2023-03-12T09:20:18.774Z,1012.251620
2023-03-12T09:25:18.727Z,1012.160110
2023-03-12T09:30:18.976Z,1012.123585
2023-03-12T09:35:19.083Z,1012.112982
2023-03-12T09:40:18.986Z,1012.088149
2023-03-12T09:45:19.047Z,1012.020482
2023-03-12T09:50:18.679Z,1011.920693
2023-03-12T09:55:18.978Z,1011.928233
2023-03-12T10:00:18.820Z,1011.879813
2023-03-12T10:05:19.378Z,1011.867070
2023-03-12T10:10:18.768Z,1011.801714
2023-03-12T10:15:18.712Z,1011.821104
2023-03-12T10:20:18.788Z,1011.669448
2023-03-12T10:25:18.859Z,1011.643874
2023-03-12T10:30:18.702Z,1011.626984
2023-03-12T10:35:21.549Z,1011.585303
2023-03-12T10:40:18.796Z,1011.537267
2023-03-12T10:45:18.726Z,1011.562460
2023-03-12T10:50:19.152Z,1011.545954
2023-03-12T10:55:18.766Z,1011.466160
2023-03-12T11:00:18.691Z,1011.500162
2023-03-12T11:05:18.884Z,1011.493800
2023-03-12T11:10:18.708Z,1011.464152
2023-03-12T11:15:18.823Z,1011.410596
2023-03-12T11:20:19.067Z,1011.324090
2023-03-12T11:25:18.838Z,1011.131113
2023-03-12T11:30:19.059Z,1011.069875
2023-03-12T11:35:18.753Z,1010.946786
2023-03-12T11:40:18.816Z,1010.895215
2023-03-12T11:45:18.749Z,1010.746645
2023-03-12T11:50:19.036Z,1010.585361
2023-03-12T11:55:18.960Z,1010.498270
2023-03-12T12:00:19.260Z,1010.459351
2023-03-12T12:05:18.776Z,1010.393424
2023-03-12T12:10:18.696Z,1010.316424
2023-03-12T12:15:18.770Z,1010.246602
2023-03-12T12:20:18.940Z,1010.121674
2023-03-12T12:25:18.786Z,1010.031539
2023-03-12T12:30:19.048Z,1009.864819
2023-03-12T12:35:19.153Z,1009.754143
2023-03-12T12:40:18.906Z,1009.668498
2023-03-12T12:45:18.726Z,1009.598963
2023-03-12T12:50:18.722Z,1009.465008
2023-03-12T12:55:18.861Z,1009.404223
2023-03-12T13:00:18.697Z,1009.308086
2023-03-12T13:05:18.687Z,1009.450380
2023-03-12T13:10:23.954Z,1009.504905
2023-03-12T13:15:18.652Z,1009.513263
2023-03-12T13:20:18.671Z,1009.497312
2023-03-12T13:25:18.713Z,1009.406012
2023-03-12T13:30:18.778Z,1009.412376
2023-03-12T13:35:18.778Z,1009.435431
2023-03-12T13:40:19.164Z,1009.428955
2023-03-12T13:45:16.211Z,1009.591628
2023-03-12T13:50:16.608Z,1009.612102
2023-03-12T13:55:16.232Z,1009.551969
2023-03-12T14:00:16.282Z,1009.619986
2023-03-12T14:05:16.349Z,1009.733741
2023-03-12T14:10:16.225Z,1009.534459
2023-03-12T14:15:16.795Z,1009.576288
2023-03-12T14:20:16.164Z,1009.582159
2023-03-12T14:25:16.438Z,1009.523741
2023-03-12T14:30:16.600Z,1009.385366
2023-03-12T14:35:16.353Z,1009.312092
2023-03-12T14:40:16.560Z,1009.160095
2023-03-12T14:45:16.261Z,1009.050071
2023-03-12T14:50:16.395Z,1009.107375
2023-03-12T14:55:16.727Z,1009.061346
2023-03-12T15:00:16.402Z,1008.884609
2023-03-12T15:05:16.683Z,1008.711804
2023-03-12T15:10:17.230Z,1008.678726
2023-03-12T15:15:16.184Z,1008.628986
2023-03-12T15:20:16.198Z,1008.423519
2023-03-12T15:25:16.352Z,1008.271614
2023-03-12T15:30:16.215Z,1008.224674
2023-03-12T15:35:16.181Z,1008.076977
2023-03-12T15:40:16.167Z,1008.046381
2023-03-12T15:45:16.554Z,1008.077751
2023-03-12T15:50:16.243Z,1008.046758
2023-03-12T15:55:16.390Z,1008.017626
2023-03-12T16:00:16.669Z,1007.937792
2023-03-12T16:05:16.329Z,1007.921231
2023-03-12T16:10:16.212Z,1007.993860
2023-03-12T16:15:16.363Z,1008.001443
2023-03-12T16:20:16.189Z,1007.906734
2023-03-12T16:25:16.476Z,1007.769197
2023-03-12T16:30:16.177Z,1007.771645
2023-03-12T16:35:16.193Z,1007.830094
2023-03-12T16:40:24.008Z,1007.764547
2023-03-12T16:45:16.251Z,1007.693276
2023-03-12T16:50:16.492Z,1007.695011
2023-03-12T16:55:16.200Z,1007.680466
2023-03-12T17:00:16.534Z,1007.625464
2023-03-12T17:05:16.384Z,1007.558699
2023-03-12T17:10:16.132Z,1007.495119
2023-03-12T17:15:16.138Z,1007.588743
2023-03-12T17:20:16.517Z,1007.686093
2023-03-12T17:25:16.197Z,1007.960675
2023-03-12T17:30:16.172Z,1007.930313
2023-03-12T17:35:16.990Z,1007.787387
2023-03-12T17:40:16.238Z,1007.785920
2023-03-12T17:45:16.481Z,1008.048838
2023-03-12T17:50:16.382Z,1008.090388
2023-03-12T17:55:16.507Z,1008.039120
2023-03-12T18:00:16.160Z,1008.096132
2023-03-12T18:05:16.249Z,1008.161830
2023-03-12T18:10:16.364Z,1008.024679
2023-03-12T18:15:16.184Z,1008.141201
2023-03-12T18:20:23.345Z,1008.203848
2023-03-12T18:25:16.758Z,1008.215066
2023-03-12T18:30:16.498Z,1008.154919
2023-03-12T18:35:16.234Z,1008.072331
2023-03-12T18:40:16.298Z,1008.029238
2023-03-12T18:45:16.076Z,1008.115120
2023-03-12T18:50:16.413Z,1008.357004
2023-03-12T18:55:16.091Z,1008.373815
2023-03-12T19:00:16.104Z,1008.403374
2023-03-12T19:05:16.354Z,1008.310172
2023-03-12T19:10:16.054Z,1008.285269
2023-03-12T19:15:16.572Z,1008.235494
2023-03-12T19:20:16.353Z,1008.039021
2023-03-12T19:25:16.090Z,1008.109142
2023-03-12T19:30:16.242Z,1008.214016
2023-03-12T19:35:16.570Z,1008.239078
2023-03-12T19:40:16.208Z,1008.281347
2023-03-12T19:45:16.065Z,1008.319642
2023-03-12T19:50:16.069Z,1008.364271
2023-03-12T19:55:16.049Z,1008.328962
2023-03-12T20:00:16.572Z,1008.321648
2023-03-12T20:05:16.767Z,1008.366854
2023-03-12T20:10:16.333Z,1008.445399
2023-03-12T20:15:16.079Z,1008.477841
2023-03-12T20:20:16.285Z,1008.435961
2023-03-12T20:25:16.493Z,1008.459236
2023-03-12T20:30:16.650Z,1008.439262
2023-03-12T20:35:16.110Z,1008.354284
2023-03-12T20:40:16.101Z,1008.338986
2023-03-12T20:45:16.346Z,1008.377712
2023-03-12T20:50:16.074Z,1008.492398
2023-03-12T20:55:16.216Z,1008.433155
2023-03-12T21:00:16.298Z,1008.382034
2023-03-12T21:05:16.344Z,1008.430028
2023-03-12T21:10:16.138Z,1008.456289
2023-03-12T21:15:16.877Z,1008.365402
2023-03-12T21:20:16.318Z,1008.316765
2023-03-12T21:25:16.080Z,1008.282882
2023-03-12T21:30:16.036Z,1008.279549
2023-03-12T21:35:15.923Z,1008.234835
2023-03-12T21:40:16.207Z,1008.174898
2023-03-12T21:45:16.494Z,1008.149121
2023-03-12T21:50:16.056Z,1008.034663
2023-03-12T21:55:15.928Z,1007.991147
2023-03-12T22:00:16.298Z,1007.926303
2023-03-12T22:05:16.340Z,1007.892116
2023-03-12T22:10:16.492Z,1007.880692
2023-03-12T22:15:16.127Z,1007.810265
2023-03-12T22:20:16.242Z,1007.849679
2023-03-12T22:25:16.032Z,1007.830201
2023-03-12T22:30:16.820Z,1007.835155
2023-03-12T22:35:16.264Z,1007.852096
2023-03-12T22:40:18.693Z,1007.839648
2023-03-12T22:45:18.521Z,1007.808587
2023-03-12T22:50:18.785Z,1007.835045
2023-03-12T22:55:18.782Z,1007.808894
2023-03-12T23:00:18.493Z,1007.674062
2023-03-12T23:05:19.528Z,1007.630793
2023-03-12T23:10:18.478Z,1007.554219
2023-03-12T23:15:20.966Z,1007.506396
2023-03-12T23:20:18.613Z,1007.424219
2023-03-12T23:25:18.563Z,1007.407214
2023-03-12T23:30:18.675Z,1007.342448
2023-03-12T23:35:18.484Z,1007.233430
2023-03-12T23:40:18.594Z,1007.242591
2023-03-12T23:45:19.010Z,1007.218038
2023-03-12T23:50:18.543Z,1007.209112
2023-03-12T23:55:18.461Z,1007.206403
